Terminal Aerodrome Forecast
Issued by NWS Sterling, VA

Current Version | Previous Version | Text Only | Print | Product List | Glossary Off
Versions: 1 2 3 4 5 6 7 8 9 10 11 12 13 14 15 16 17 18 19

000
FTUS41 KLWX 260500 AAC
TAFMRB
TAF AMD
KMRB 260518Z 2605/2624 36006KT P6SM OVC008
     FM260600 06007KT 3SM -SNRA OVC008
     FM261000 06007KT 1/2SM SN OVC008
     FM262300 02007KT 3/4SM -SN OVC010=

USA.gov is the U.S. government's official web portal to all federal, state and local government web resources and services.